Time;durP1;ratioP1;P1;durP2;ratioP2;P2;SDS_P1;SDS_P2;PMS_P1;PMS_P2;Temp;Humidity;BMP_temperature;BMP_pressure;BME280_temperature;BME280_humidity;BME280_pressure;Samples;Min_cycle;Max_cycle;Signal;HPM_P1;HPM_P2
2022/01/16 00:04:17;;;;;;;17.08;10.60;;;;;;;;;;5008431;28;20099;-51
2022/01/16 00:06:45;;;;;;;17.98;10.75;;;;;;;;;;5007752;28;20045;-51
2022/01/16 00:09:11;;;;;;;17.48;10.45;;;;;;;;;;5008160;28;20754;-56
2022/01/16 00:11:38;;;;;;;15.80;9.70;;;;;;;;;;5009808;28;20034;-51
2022/01/16 00:14:07;;;;;;;17.63;9.80;;;;;;;;;;5009251;28;20073;-54
2022/01/16 00:16:33;;;;;;;20.77;10.48;;;;;;;;;;5009461;28;20080;-53
2022/01/16 00:18:59;;;;;;;17.80;11.05;;;;;;;;;;5009126;28;20048;-52
2022/01/16 00:21:27;;;;;;;17.83;10.32;;;;;;;;;;5008974;28;20038;-52
2022/01/16 00:23:53;;;;;;;18.00;11.23;;;;;;;;;;5009045;28;20040;-52
2022/01/16 00:26:22;;;;;;;19.33;11.23;;;;;;;;;;5008242;28;20037;-57
2022/01/16 00:28:49;;;;;;;21.83;11.02;;;;;;;;;;5008247;28;20486;-52
2022/01/16 00:31:16;;;;;;;19.75;10.98;;;;;;;;;;5008005;28;20152;-54
2022/01/16 00:33:44;;;;;;;17.48;10.48;;;;;;;;;;5008163;28;20099;-52
2022/01/16 00:36:11;;;;;;;19.08;10.20;;;;;;;;;;5008192;28;20030;-53
2022/01/16 00:38:42;;;;;;;18.13;10.57;;;;;;;;;;5011418;28;20071;-55
2022/01/16 00:41:08;;;;;;;21.60;11.95;;;;;;;;;;5007540;28;20044;-55
2022/01/16 00:43:33;;;;;;;19.08;11.15;;;;;;;;;;5007504;28;20022;-53
2022/01/16 00:45:59;;;;;;;18.48;10.27;;;;;;;;;;5007591;28;20037;-55
2022/01/16 00:48:24;;;;;;;19.35;10.25;;;;;;;;;;5008517;28;20113;-56
2022/01/16 00:50:50;;;;;;;18.52;9.27;;;;;;;;;;5005435;28;20489;-55
2022/01/16 00:53:15;;;;;;;17.98;8.85;;;;;;;;;;5005183;28;20034;-51
2022/01/16 00:55:41;;;;;;;16.33;9.10;;;;;;;;;;5007456;28;20029;-53
2022/01/16 00:58:06;;;;;;;15.80;9.10;;;;;;;;;;5006147;28;20034;-54
2022/01/16 01:00:33;;;;;;;19.05;9.10;;;;;;;;;;5006638;28;20099;-51
2022/01/16 01:03:00;;;;;;;18.27;10.05;;;;;;;;;;4990011;28;20029;-55
2022/01/16 01:05:25;;;;;;;18.02;9.07;;;;;;;;;;5005823;28;20179;-51
2022/01/16 01:07:51;;;;;;;16.23;8.90;;;;;;;;;;5005946;28;20134;-51
2022/01/16 01:10:18;;;;;;;17.15;9.50;;;;;;;;;;5006145;28;20066;-55
2022/01/16 01:12:53;;;;;;;15.05;8.07;;;;;;;;;;5007343;28;20128;-53
2022/01/16 01:15:26;;;;;;;15.88;8.55;;;;;;;;;;5006218;28;20030;-53
2022/01/16 01:17:52;;;;;;;13.32;7.47;;;;;;;;;;5009468;28;20030;-52
2022/01/16 01:20:20;;;;;;;11.57;6.80;;;;;;;;;;5003323;28;20400;-51
2022/01/16 01:22:48;;;;;;;13.95;7.70;;;;;;;;;;5002726;28;20030;-56
2022/01/16 01:25:15;;;;;;;16.45;7.07;;;;;;;;;;5005359;28;20025;-51
2022/01/16 01:27:44;;;;;;;12.68;7.65;;;;;;;;;;5004931;28;20026;-55
2022/01/16 01:30:15;;;;;;;13.02;7.05;;;;;;;;;;5006322;28;20161;-55
2022/01/16 01:32:41;;;;;;;14.43;7.57;;;;;;;;;;5004531;28;20022;-53
2022/01/16 01:35:10;;;;;;;13.70;7.38;;;;;;;;;;5006395;28;20026;-51
2022/01/16 01:37:36;;;;;;;17.50;8.07;;;;;;;;;;5005618;28;20120;-54
2022/01/16 01:40:05;;;;;;;16.38;8.32;;;;;;;;;;5004647;28;20423;-53
2022/01/16 01:42:34;;;;;;;20.90;9.23;;;;;;;;;;5003842;28;20478;-52
2022/01/16 01:53:15;;;;;;;30.63;13.32;;;;;;;;;;5004024;28;20041;-52
2022/01/16 01:55:43;;;;;;;29.20;13.27;;;;;;;;;;5003509;28;20067;-53
2022/01/16 01:58:09;;;;;;;33.33;13.45;;;;;;;;;;5005473;28;20018;-55
2022/01/16 02:00:36;;;;;;;32.70;13.27;;;;;;;;;;5004096;28;20026;-57
2022/01/16 02:03:26;;;;;;;28.95;12.57;;;;;;;;;;5006555;28;20044;-58
2022/01/16 02:05:51;;;;;;;33.25;13.15;;;;;;;;;;5019350;28;20038;-54
2022/01/16 02:08:17;;;;;;;28.88;13.82;;;;;;;;;;5001214;28;20034;-58
2022/01/16 02:10:43;;;;;;;31.05;14.07;;;;;;;;;;5006215;28;20072;-54
2022/01/16 02:13:18;;;;;;;26.00;12.27;;;;;;;;;;5004595;28;20112;-58
2022/01/16 02:34:40;;;;;;;21.67;10.75;;;;;;;;;;5004829;28;20061;-53
2022/01/16 02:37:09;;;;;;;24.70;11.32;;;;;;;;;;5003077;28;20147;-58
2022/01/16 02:39:40;;;;;;;21.95;10.38;;;;;;;;;;5002742;28;20031;-57
2022/01/16 02:42:07;;;;;;;23.67;10.68;;;;;;;;;;5002574;28;20030;-57
2022/01/16 02:45:02;;;;;;;20.50;10.13;;;;;;;;;;5005379;28;20029;-58
2022/01/16 02:47:20;;;;;;;20.63;10.20;;;;;;;;;;5002744;28;20068;-58
2022/01/16 02:49:49;;;;;;;20.58;10.65;;;;;;;;;;5003494;28;20025;-54
2022/01/16 02:52:20;;;;;;;17.60;9.13;;;;;;;;;;5004233;28;20049;-53
2022/01/16 02:54:49;;;;;;;19.88;9.60;;;;;;;;;;5002872;28;20490;-57
2022/01/16 02:57:20;;;;;;;18.40;8.90;;;;;;;;;;5004927;28;20036;-58
2022/01/16 02:59:51;;;;;;;18.95;9.60;;;;;;;;;;5004225;28;20030;-55
2022/01/16 03:02:19;;;;;;;18.52;8.82;;;;;;;;;;5003148;28;20030;-57
2022/01/16 03:04:45;;;;;;;15.80;9.10;;;;;;;;;;5002945;28;20034;-56
2022/01/16 03:07:11;;;;;;;19.83;9.27;;;;;;;;;;5002521;28;20646;-54
2022/01/16 03:12:10;;;;;;;19.02;8.90;;;;;;;;;;5003100;28;20593;-58
2022/01/16 03:14:36;;;;;;;22.52;10.35;;;;;;;;;;5003725;28;20116;-56
2022/01/16 03:17:01;;;;;;;19.38;9.82;;;;;;;;;;5003808;28;20029;-56
2022/01/16 03:22:11;;;;;;;19.25;9.23;;;;;;;;;;5003739;28;20068;-58
2022/01/16 03:24:43;;;;;;;21.27;10.00;;;;;;;;;;5002922;28;20369;-58
2022/01/16 03:27:09;;;;;;;21.65;9.93;;;;;;;;;;5002533;28;20460;-59
2022/01/16 03:29:36;;;;;;;20.42;9.75;;;;;;;;;;5003516;28;20097;-53
2022/01/16 03:32:05;;;;;;;22.80;10.48;;;;;;;;;;5005034;28;20040;-58
2022/01/16 03:34:31;;;;;;;20.45;10.80;;;;;;;;;;5008534;28;20135;-55
2022/01/16 03:36:57;;;;;;;20.17;10.52;;;;;;;;;;5007352;28;20069;-52
2022/01/16 03:39:23;;;;;;;21.63;11.10;;;;;;;;;;5007196;28;20037;-56
2022/01/16 03:41:48;;;;;;;21.40;10.48;;;;;;;;;;5006854;28;20131;-56
2022/01/16 03:44:14;;;;;;;20.98;10.20;;;;;;;;;;5005424;28;20128;-56
2022/01/16 03:46:42;;;;;;;20.73;10.27;;;;;;;;;;5007982;28;20022;-56
2022/01/16 03:49:11;;;;;;;21.20;9.98;;;;;;;;;;5007217;28;20042;-59
2022/01/16 03:51:37;;;;;;;19.90;10.20;;;;;;;;;;5006244;28;20033;-55
2022/01/16 03:54:04;;;;;;;20.48;9.95;;;;;;;;;;5023142;28;20053;-53
2022/01/16 03:56:30;;;;;;;24.45;10.90;;;;;;;;;;5006612;28;20030;-55
2022/01/16 03:58:55;;;;;;;20.55;10.30;;;;;;;;;;5008365;28;20107;-50
2022/01/16 04:01:21;;;;;;;20.17;9.65;;;;;;;;;;5007690;28;20042;-54
2022/01/16 04:03:47;;;;;;;20.55;10.05;;;;;;;;;;5005559;28;20037;-54
2022/01/16 04:06:12;;;;;;;19.60;9.00;;;;;;;;;;5007441;28;20489;-52
2022/01/16 04:08:38;;;;;;;18.35;9.43;;;;;;;;;;5007245;28;20033;-53
2022/01/16 04:11:04;;;;;;;17.17;9.48;;;;;;;;;;5007847;28;20505;-57
2022/01/16 04:13:31;;;;;;;20.75;9.40;;;;;;;;;;5007937;28;20033;-54
2022/01/16 04:15:57;;;;;;;21.88;9.30;;;;;;;;;;5009537;28;21219;-53
2022/01/16 04:18:22;;;;;;;18.67;9.48;;;;;;;;;;5005718;28;20017;-52
2022/01/16 04:20:48;;;;;;;20.52;9.82;;;;;;;;;;5005793;28;20482;-56
2022/01/16 04:23:13;;;;;;;18.90;9.05;;;;;;;;;;5007319;28;20659;-54
2022/01/16 04:25:39;;;;;;;19.50;9.35;;;;;;;;;;5006695;28;20362;-54
2022/01/16 04:28:05;;;;;;;14.98;8.75;;;;;;;;;;5007391;28;20068;-55
2022/01/16 04:30:31;;;;;;;19.90;8.80;;;;;;;;;;5007182;28;20026;-55
2022/01/16 04:32:56;;;;;;;16.58;8.52;;;;;;;;;;5006815;28;20045;-53
2022/01/16 04:35:22;;;;;;;18.88;8.68;;;;;;;;;;5004769;28;20022;-51
2022/01/16 04:37:48;;;;;;;17.38;8.32;;;;;;;;;;5007279;28;20165;-51
2022/01/16 04:40:14;;;;;;;16.48;8.20;;;;;;;;;;5007679;28;20733;-55
2022/01/16 04:45:23;;;;;;;14.00;7.50;;;;;;;;;;5005146;28;21072;-52
2022/01/16 04:47:50;;;;;;;16.27;8.38;;;;;;;;;;5007128;28;20026;-52
2022/01/16 04:50:16;;;;;;;16.25;7.55;;;;;;;;;;5007424;28;20069;-55
2022/01/16 04:52:43;;;;;;;15.32;7.15;;;;;;;;;;4993137;28;20046;-53
2022/01/16 04:55:10;;;;;;;14.88;7.93;;;;;;;;;;5009676;28;20090;-54
2022/01/16 04:57:35;;;;;;;15.90;8.25;;;;;;;;;;5006651;28;20030;-57
2022/01/16 05:00:04;;;;;;;17.83;8.45;;;;;;;;;;5007465;28;20080;-55
2022/01/16 05:02:30;;;;;;;14.90;7.20;;;;;;;;;;5007468;28;20061;-51
2022/01/16 05:04:55;;;;;;;13.32;7.38;;;;;;;;;;5008142;28;20471;-53
2022/01/16 05:07:20;;;;;;;15.25;8.20;;;;;;;;;;5009084;28;20125;-53
2022/01/16 05:09:46;;;;;;;14.48;6.95;;;;;;;;;;5005496;28;20065;-54
2022/01/16 05:12:23;;;;;;;13.60;7.55;;;;;;;;;;5009206;28;20148;-52
2022/01/16 05:17:32;;;;;;;12.80;7.18;;;;;;;;;;5009360;28;20044;-53
2022/01/16 05:19:58;;;;;;;14.90;7.07;;;;;;;;;;5008495;28;20034;-55
2022/01/16 05:22:23;;;;;;;14.52;6.75;;;;;;;;;;5008805;28;20034;-52
2022/01/16 05:24:48;;;;;;;12.63;6.82;;;;;;;;;;4993090;28;20030;-52
2022/01/16 05:27:14;;;;;;;11.85;6.57;;;;;;;;;;5008558;28;20037;-52
2022/01/16 05:29:39;;;;;;;13.05;6.93;;;;;;;;;;5008778;28;20036;-55
2022/01/16 05:32:05;;;;;;;18.40;7.75;;;;;;;;;;5006986;28;20486;-54
2022/01/16 05:34:30;;;;;;;16.48;8.07;;;;;;;;;;5007931;28;20741;-51
2022/01/16 05:36:56;;;;;;;13.77;7.50;;;;;;;;;;5009524;28;20030;-53
2022/01/16 05:39:21;;;;;;;14.27;7.68;;;;;;;;;;5008410;28;20379;-52
2022/01/16 05:41:47;;;;;;;13.18;7.45;;;;;;;;;;5007573;28;20029;-54
2022/01/16 05:44:12;;;;;;;13.07;7.53;;;;;;;;;;5008935;28;20046;-54
2022/01/16 05:46:38;;;;;;;14.75;7.85;;;;;;;;;;5008670;28;20128;-53
2022/01/16 05:49:03;;;;;;;13.18;7.05;;;;;;;;;;5006398;28;20040;-56
2022/01/16 05:51:29;;;;;;;10.15;5.43;;;;;;;;;;5009501;28;20052;-55
2022/01/16 05:53:56;;;;;;;10.40;5.75;;;;;;;;;;5006681;28;20042;-52
2022/01/16 05:56:22;;;;;;;10.55;5.97;;;;;;;;;;5007227;28;20431;-52
2022/01/16 05:58:48;;;;;;;9.35;4.97;;;;;;;;;;5007208;28;20145;-52
2022/01/16 06:01:13;;;;;;;6.75;4.70;;;;;;;;;;5007737;28;20033;-51
2022/01/16 06:03:39;;;;;;;9.00;4.93;;;;;;;;;;4995649;28;20018;-51
2022/01/16 06:06:04;;;;;;;8.63;4.88;;;;;;;;;;5008461;28;20558;-57
2022/01/16 06:08:30;;;;;;;9.18;4.57;;;;;;;;;;5008403;28;20026;-54
2022/01/16 06:10:55;;;;;;;7.03;4.47;;;;;;;;;;5007283;28;20029;-50
2022/01/16 06:13:21;;;;;;;6.93;4.05;;;;;;;;;;5009605;28;20497;-51
2022/01/16 06:15:46;;;;;;;6.45;4.15;;;;;;;;;;5008999;28;20029;-50
2022/01/16 06:18:13;;;;;;;7.00;3.97;;;;;;;;;;5007566;28;20033;-54
2022/01/16 06:20:39;;;;;;;6.18;3.75;;;;;;;;;;5008996;28;20107;-55
2022/01/16 06:23:04;;;;;;;6.28;4.03;;;;;;;;;;5007062;28;20034;-54
2022/01/16 06:25:30;;;;;;;6.03;3.78;;;;;;;;;;5007126;28;20030;-53
2022/01/16 06:27:55;;;;;;;6.05;3.72;;;;;;;;;;5007339;28;20026;-52
2022/01/16 06:30:21;;;;;;;6.18;4.32;;;;;;;;;;5008307;28;20034;-55
2022/01/16 06:32:47;;;;;;;6.50;4.47;;;;;;;;;;5006810;28;20062;-52
2022/01/16 06:35:16;;;;;;;6.32;4.25;;;;;;;;;;4992269;28;20034;-55
2022/01/16 06:37:42;;;;;;;5.93;4.18;;;;;;;;;;5005361;28;20076;-52
2022/01/16 06:40:09;;;;;;;8.13;4.72;;;;;;;;;;5005977;28;20903;-53
2022/01/16 06:42:37;;;;;;;7.68;4.55;;;;;;;;;;5006444;28;20055;-53
2022/01/16 06:45:03;;;;;;;8.25;4.50;;;;;;;;;;5006431;28;20103;-52
2022/01/16 06:47:28;;;;;;;7.53;4.47;;;;;;;;;;5008099;28;20029;-54
2022/01/16 06:49:54;;;;;;;7.72;5.22;;;;;;;;;;5004581;28;20037;-56
2022/01/16 06:52:19;;;;;;;8.73;5.47;;;;;;;;;;5006904;28;20436;-53
2022/01/16 06:54:44;;;;;;;7.60;5.00;;;;;;;;;;5002011;28;20022;-54
2022/01/16 06:57:10;;;;;;;10.88;5.53;;;;;;;;;;5004766;28;20510;-56
2022/01/16 06:59:38;;;;;;;9.98;6.20;;;;;;;;;;5005094;28;20054;-55
2022/01/16 07:02:04;;;;;;;9.38;5.25;;;;;;;;;;5006277;28;20077;-56
2022/01/16 07:04:30;;;;;;;9.52;6.30;;;;;;;;;;5004262;28;20473;-52
2022/01/16 07:06:55;;;;;;;9.35;6.07;;;;;;;;;;5003427;28;20064;-54
2022/01/16 07:09:21;;;;;;;8.73;5.10;;;;;;;;;;5006038;28;20386;-52
2022/01/16 07:11:46;;;;;;;10.43;6.50;;;;;;;;;;5005298;28;20554;-50
2022/01/16 07:14:11;;;;;;;9.73;6.00;;;;;;;;;;5004724;28;20064;-54
2022/01/16 07:16:37;;;;;;;9.63;6.47;;;;;;;;;;5002235;28;20418;-55
2022/01/16 07:19:02;;;;;;;11.05;6.32;;;;;;;;;;5004306;28;20453;-53
2022/01/16 07:21:28;;;;;;;12.13;6.90;;;;;;;;;;5003519;28;20025;-53
2022/01/16 07:23:53;;;;;;;12.15;6.80;;;;;;;;;;5002373;28;20702;-54
2022/01/16 07:26:19;;;;;;;11.60;7.18;;;;;;;;;;5004685;28;20034;-57
2022/01/16 07:28:45;;;;;;;12.82;7.65;;;;;;;;;;5001613;28;20029;-54
2022/01/16 07:31:10;;;;;;;12.65;7.20;;;;;;;;;;5003052;28;20026;-54
2022/01/16 07:33:36;;;;;;;12.73;7.75;;;;;;;;;;5004298;28;20096;-54
2022/01/16 07:36:03;;;;;;;13.50;7.53;;;;;;;;;;5003305;28;20037;-57
2022/01/16 07:38:28;;;;;;;14.82;8.43;;;;;;;;;;5004441;28;20022;-52
2022/01/16 07:40:54;;;;;;;15.27;8.30;;;;;;;;;;5002954;28;20501;-55
2022/01/16 07:43:19;;;;;;;14.07;7.97;;;;;;;;;;5004087;28;20030;-55
2022/01/16 07:45:45;;;;;;;16.33;8.30;;;;;;;;;;5002801;28;20760;-54
2022/01/16 07:48:11;;;;;;;15.75;7.97;;;;;;;;;;5004206;28;20037;-52
2022/01/16 07:50:38;;;;;;;17.73;8.48;;;;;;;;;;5004227;28;20030;-56
2022/01/16 07:53:04;;;;;;;16.77;8.25;;;;;;;;;;5005717;28;20491;-51
2022/01/16 07:55:30;;;;;;;20.42;9.73;;;;;;;;;;4999902;28;20515;-55
2022/01/16 07:57:56;;;;;;;17.75;8.85;;;;;;;;;;5003373;28;20014;-56
2022/01/16 08:00:23;;;;;;;20.55;9.88;;;;;;;;;;5003182;28;20465;-52
2022/01/16 08:02:49;;;;;;;20.27;8.70;;;;;;;;;;5004564;28;20164;-52
2022/01/16 08:05:16;;;;;;;18.08;9.65;;;;;;;;;;5002559;28;20025;-54
2022/01/16 08:07:42;;;;;;;21.40;10.05;;;;;;;;;;5003119;28;20413;-52
2022/01/16 08:10:08;;;;;;;17.70;9.35;;;;;;;;;;5002866;28;20434;-54
2022/01/16 08:12:33;;;;;;;21.10;9.80;;;;;;;;;;5003797;28;20029;-52
2022/01/16 08:14:59;;;;;;;22.75;10.25;;;;;;;;;;5004222;28;20494;-53
2022/01/16 08:17:24;;;;;;;18.73;10.52;;;;;;;;;;5005802;28;20117;-53
2022/01/16 08:19:50;;;;;;;24.05;10.43;;;;;;;;;;5008927;28;20422;-55
2022/01/16 08:22:15;;;;;;;22.88;10.75;;;;;;;;;;5005164;28;20021;-54
2022/01/16 08:24:40;;;;;;;19.45;10.35;;;;;;;;;;4995841;28;20026;-56
2022/01/16 08:27:06;;;;;;;24.13;11.20;;;;;;;;;;5006914;28;20037;-54
2022/01/16 08:29:31;;;;;;;23.02;11.10;;;;;;;;;;5007373;28;20032;-55
2022/01/16 08:31:57;;;;;;;22.40;11.15;;;;;;;;;;5007207;28;20034;-55
2022/01/16 08:34:22;;;;;;;25.95;12.30;;;;;;;;;;5005087;28;20708;-55
2022/01/16 08:36:47;;;;;;;23.02;11.45;;;;;;;;;;5005074;28;20038;-54
2022/01/16 08:39:14;;;;;;;23.75;11.45;;;;;;;;;;5006550;28;20040;-54
2022/01/16 08:41:41;;;;;;;23.63;11.27;;;;;;;;;;5004592;28;20154;-54
2022/01/16 08:44:06;;;;;;;23.85;12.05;;;;;;;;;;5006335;28;20034;-55
2022/01/16 08:46:32;;;;;;;22.95;11.98;;;;;;;;;;5006164;28;20104;-57
2022/01/16 08:48:58;;;;;;;23.00;11.77;;;;;;;;;;5006005;28;20417;-52
2022/01/16 08:51:23;;;;;;;24.70;11.85;;;;;;;;;;5007146;28;20030;-56
2022/01/16 08:53:49;;;;;;;24.75;11.55;;;;;;;;;;5007418;28;20034;-55
2022/01/16 08:56:15;;;;;;;25.70;12.57;;;;;;;;;;5005873;28;20101;-53
2022/01/16 08:58:40;;;;;;;29.75;13.00;;;;;;;;;;5005757;28;20064;-52
2022/01/16 09:01:06;;;;;;;25.70;12.32;;;;;;;;;;5006820;28;20041;-53
2022/01/16 09:03:31;;;;;;;24.08;11.85;;;;;;;;;;5007567;28;20033;-57
2022/01/16 09:05:57;;;;;;;28.02;12.13;;;;;;;;;;5004505;28;20027;-54
2022/01/16 09:08:22;;;;;;;24.80;12.15;;;;;;;;;;5003786;28;20698;-57
2022/01/16 09:10:48;;;;;;;23.92;11.82;;;;;;;;;;5007706;28;20140;-53
2022/01/16 09:13:16;;;;;;;23.27;10.88;;;;;;;;;;5005912;28;20044;-52
2022/01/16 09:15:48;;;;;;;23.45;11.82;;;;;;;;;;5005479;28;20041;-55
2022/01/16 09:18:14;;;;;;;25.52;11.55;;;;;;;;;;5005624;28;20492;-53
2022/01/16 09:20:40;;;;;;;25.50;11.85;;;;;;;;;;5005582;28;20040;-53
2022/01/16 09:23:07;;;;;;;23.05;12.07;;;;;;;;;;5006514;28;20029;-55
2022/01/16 09:25:33;;;;;;;26.23;11.68;;;;;;;;;;5003252;28;21270;-52
2022/01/16 09:27:58;;;;;;;22.63;10.98;;;;;;;;;;5004859;28;20033;-52
2022/01/16 09:30:24;;;;;;;26.65;11.57;;;;;;;;;;5004322;28;20029;-51
2022/01/16 09:32:50;;;;;;;24.83;10.95;;;;;;;;;;5005443;28;20028;-51
2022/01/16 09:35:16;;;;;;;26.25;12.65;;;;;;;;;;5005571;28;20194;-53
2022/01/16 09:37:42;;;;;;;24.08;11.30;;;;;;;;;;5005068;28;20040;-55
2022/01/16 09:40:09;;;;;;;28.27;11.90;;;;;;;;;;5007392;28;20559;-56
2022/01/16 09:42:35;;;;;;;25.15;11.82;;;;;;;;;;5005644;28;20694;-54
2022/01/16 09:45:01;;;;;;;23.52;11.18;;;;;;;;;;5005743;28;20247;-51
2022/01/16 09:47:26;;;;;;;25.42;11.40;;;;;;;;;;5005242;28;20025;-51
2022/01/16 09:49:52;;;;;;;25.50;11.35;;;;;;;;;;5004093;28;20081;-52
2022/01/16 09:52:18;;;;;;;28.70;11.10;;;;;;;;;;5003701;28;20034;-53
2022/01/16 09:54:44;;;;;;;25.33;10.57;;;;;;;;;;5004267;28;20061;-56
2022/01/16 09:57:11;;;;;;;25.73;11.20;;;;;;;;;;5005401;28;20095;-51
2022/01/16 09:59:37;;;;;;;28.23;11.35;;;;;;;;;;5005078;28;20052;-51
2022/01/16 10:02:03;;;;;;;23.98;11.68;;;;;;;;;;5003298;28;20025;-54
2022/01/16 10:04:32;;;;;;;26.58;11.35;;;;;;;;;;5004383;28;20034;-53
2022/01/16 10:06:59;;;;;;;23.70;11.23;;;;;;;;;;5004102;28;20030;-54
2022/01/16 10:09:25;;;;;;;23.83;11.00;;;;;;;;;;5005731;28;20694;-52
2022/01/16 10:11:59;;;;;;;24.90;11.05;;;;;;;;;;5004748;28;20095;-54
2022/01/16 10:14:43;;;;;;;24.42;10.90;;;;;;;;;;5008347;28;20033;-57
2022/01/16 10:17:11;;;;;;;20.50;10.82;;;;;;;;;;5001917;28;20109;-54
2022/01/16 10:19:37;;;;;;;23.20;10.18;;;;;;;;;;5005203;28;20029;-56
2022/01/16 10:22:08;;;;;;;21.23;9.75;;;;;;;;;;5003968;28;20029;-56
2022/01/16 10:24:34;;;;;;;21.42;10.05;;;;;;;;;;5004205;28;20380;-54
2022/01/16 10:27:11;;;;;;;23.65;10.38;;;;;;;;;;5004461;28;20044;-54
2022/01/16 10:29:49;;;;;;;18.15;9.38;;;;;;;;;;5004671;28;20477;-54
2022/01/16 10:32:26;;;;;;;20.58;10.35;;;;;;;;;;5001148;28;20026;-53
2022/01/16 10:35:05;;;;;;;21.77;10.30;;;;;;;;;;4985584;28;20045;-52
2022/01/16 10:37:32;;;;;;;22.00;9.90;;;;;;;;;;5005387;28;20446;-54
2022/01/16 10:40:09;;;;;;;22.73;10.40;;;;;;;;;;5004961;28;20040;-53
2022/01/16 10:42:36;;;;;;;20.65;9.95;;;;;;;;;;5003078;28;20116;-55
2022/01/16 10:45:07;;;;;;;19.35;9.63;;;;;;;;;;5003558;28;20053;-55
2022/01/16 10:47:37;;;;;;;18.25;9.38;;;;;;;;;;5001015;28;20466;-54
2022/01/16 10:50:07;;;;;;;21.60;10.35;;;;;;;;;;5003484;28;20049;-55
2022/01/16 10:52:44;;;;;;;20.17;10.00;;;;;;;;;;5001351;28;20104;-53
2022/01/16 10:55:10;;;;;;;19.48;9.63;;;;;;;;;;5002234;28;20056;-55
2022/01/16 10:57:36;;;;;;;21.67;9.95;;;;;;;;;;4999600;28;20030;-53
2022/01/16 11:00:17;;;;;;;23.85;10.38;;;;;;;;;;4999555;28;20032;-56
2022/01/16 11:02:47;;;;;;;21.17;9.95;;;;;;;;;;4999790;28;20033;-55
2022/01/16 11:05:16;;;;;;;23.75;9.52;;;;;;;;;;4999187;28;20121;-52
2022/01/16 11:07:42;;;;;;;24.08;9.88;;;;;;;;;;5002142;28;20225;-57
2022/01/16 11:10:27;;;;;;;18.45;9.57;;;;;;;;;;5005364;28;20529;-54
2022/01/16 11:12:55;;;;;;;22.13;10.13;;;;;;;;;;5001061;28;20064;-51
2022/01/16 11:15:22;;;;;;;19.05;10.05;;;;;;;;;;5002344;28;20482;-52
2022/01/16 11:17:47;;;;;;;19.63;9.10;;;;;;;;;;5003150;28;20049;-54
2022/01/16 11:20:14;;;;;;;19.25;9.85;;;;;;;;;;5002293;28;20038;-52
2022/01/16 11:22:59;;;;;;;20.83;10.07;;;;;;;;;;5002287;28;20033;-55
2022/01/16 11:25:34;;;;;;;22.13;9.85;;;;;;;;;;5003835;28;20042;-54
2022/01/16 11:28:14;;;;;;;26.15;10.60;;;;;;;;;;5002405;28;20053;-57
2022/01/16 11:30:43;;;;;;;20.15;9.73;;;;;;;;;;5004093;28;20665;-56
2022/01/16 11:33:09;;;;;;;19.55;10.07;;;;;;;;;;5002943;28;20061;-56
2022/01/16 11:35:40;;;;;;;18.45;8.88;;;;;;;;;;5005123;28;20104;-57
2022/01/16 11:38:06;;;;;;;19.77;9.20;;;;;;;;;;5001179;28;20045;-52
2022/01/16 11:40:42;;;;;;;17.63;9.05;;;;;;;;;;5002501;28;20026;-57
2022/01/16 11:43:16;;;;;;;20.60;9.23;;;;;;;;;;5002873;28;20470;-55
2022/01/16 11:45:52;;;;;;;19.48;10.23;;;;;;;;;;5002859;28;20137;-56
2022/01/16 11:48:40;;;;;;;19.90;10.50;;;;;;;;;;5003425;28;20061;-52
2022/01/16 11:54:33;;;;;;;20.48;9.85;;;;;;;;;;5005031;28;21031;-53
2022/01/16 11:57:21;;;;;;;20.40;9.55;;;;;;;;;;5001954;28;20117;-56
2022/01/16 11:59:53;;;;;;;24.48;10.07;;;;;;;;;;5006004;28;20130;-54
2022/01/16 12:02:22;;;;;;;21.52;10.88;;;;;;;;;;5006042;28;20037;-53
2022/01/16 12:04:48;;;;;;;19.40;9.57;;;;;;;;;;5007616;28;20029;-57
2022/01/16 12:07:15;;;;;;;19.35;9.52;;;;;;;;;;5006059;28;20026;-51
2022/01/16 12:09:52;;;;;;;21.63;10.50;;;;;;;;;;5006957;28;20030;-53
2022/01/16 12:12:21;;;;;;;21.15;10.15;;;;;;;;;;5005504;28;20442;-54
2022/01/16 12:14:57;;;;;;;21.98;9.98;;;;;;;;;;5005331;28;20040;-57
2022/01/16 12:17:39;;;;;;;21.45;10.05;;;;;;;;;;5005413;28;20152;-55
2022/01/16 12:20:14;;;;;;;21.27;9.88;;;;;;;;;;5006097;28;20033;-55
2022/01/16 12:22:42;;;;;;;19.95;10.35;;;;;;;;;;5004860;28;20065;-51
2022/01/16 12:25:39;;;;;;;22.77;11.15;;;;;;;;;;5006250;28;20022;-52
2022/01/16 12:28:05;;;;;;;20.10;10.35;;;;;;;;;;4994585;28;20088;-55
2022/01/16 12:30:39;;;;;;;18.02;9.18;;;;;;;;;;5006796;28;20037;-54
2022/01/16 12:33:14;;;;;;;20.08;9.52;;;;;;;;;;5004101;28;20033;-57
2022/01/16 12:35:44;;;;;;;19.58;9.93;;;;;;;;;;5006386;28;20060;-54
2022/01/16 12:38:09;;;;;;;18.70;9.65;;;;;;;;;;5005048;28;20049;-52
2022/01/16 12:40:38;;;;;;;22.05;10.23;;;;;;;;;;5003174;28;20037;-55
2022/01/16 12:43:05;;;;;;;22.55;10.82;;;;;;;;;;5005971;28;20040;-52
2022/01/16 12:45:42;;;;;;;22.63;10.07;;;;;;;;;;5005285;28;20092;-52
2022/01/16 12:48:08;;;;;;;23.10;10.30;;;;;;;;;;5004524;28;20060;-52
2022/01/16 12:50:34;;;;;;;22.20;10.43;;;;;;;;;;5005458;28;20083;-53
2022/01/16 12:52:59;;;;;;;21.85;10.23;;;;;;;;;;5004236;28;20026;-56
2022/01/16 12:55:26;;;;;;;20.83;10.70;;;;;;;;;;5006384;28;21201;-51
2022/01/16 12:57:52;;;;;;;19.02;9.45;;;;;;;;;;5004247;28;20033;-55
2022/01/16 13:00:17;;;;;;;19.50;9.60;;;;;;;;;;5005528;28;20457;-56
2022/01/16 13:02:42;;;;;;;17.23;8.70;;;;;;;;;;5004576;28;20236;-55
2022/01/16 13:05:08;;;;;;;18.20;9.05;;;;;;;;;;4990953;28;20041;-57
2022/01/16 13:07:37;;;;;;;14.68;7.40;;;;;;;;;;5004187;28;20026;-55
2022/01/16 13:10:03;;;;;;;19.52;9.50;;;;;;;;;;5002755;28;20510;-52
2022/01/16 13:12:30;;;;;;;20.98;9.68;;;;;;;;;;5006745;28;20044;-54
2022/01/16 13:15:00;;;;;;;18.25;9.55;;;;;;;;;;5005527;28;20041;-53
2022/01/16 13:17:25;;;;;;;19.95;9.38;;;;;;;;;;5004785;28;20509;-54
2022/01/16 13:19:53;;;;;;;19.08;9.70;;;;;;;;;;5005827;28;20053;-53
2022/01/16 13:22:29;;;;;;;17.35;8.98;;;;;;;;;;5004888;28;20106;-54
2022/01/16 13:25:06;;;;;;;17.25;9.00;;;;;;;;;;5004579;28;20038;-53
2022/01/16 13:27:32;;;;;;;19.90;9.35;;;;;;;;;;5004883;28;20074;-53
2022/01/16 13:30:24;;;;;;;18.77;9.02;;;;;;;;;;5004828;28;20091;-53
2022/01/16 13:32:50;;;;;;;19.75;9.07;;;;;;;;;;5003582;28;20057;-54
2022/01/16 13:35:24;;;;;;;17.67;8.80;;;;;;;;;;5000611;28;20025;-54
2022/01/16 13:37:53;;;;;;;18.33;9.13;;;;;;;;;;5005714;28;20731;-58
2022/01/16 13:40:24;;;;;;;17.20;9.15;;;;;;;;;;5004131;28;20018;-57
2022/01/16 13:45:31;;;;;;;15.65;9.07;;;;;;;;;;5004666;28;20029;-55
2022/01/16 13:47:59;;;;;;;19.83;9.82;;;;;;;;;;5003791;28;20030;-56
2022/01/16 13:50:46;;;;;;;20.48;9.63;;;;;;;;;;5001545;28;20022;-51
2022/01/16 13:53:17;;;;;;;19.35;8.55;;;;;;;;;;5004291;28;20034;-53
2022/01/16 13:55:58;;;;;;;19.25;9.35;;;;;;;;;;5003205;28;20084;-53
2022/01/16 13:58:30;;;;;;;17.73;9.40;;;;;;;;;;5003432;28;20102;-54
2022/01/16 14:01:00;;;;;;;22.40;10.18;;;;;;;;;;5004144;28;20484;-53
2022/01/16 14:03:31;;;;;;;19.55;8.98;;;;;;;;;;5004843;28;20029;-52
2022/01/16 14:06:04;;;;;;;18.15;9.27;;;;;;;;;;5003862;28;20029;-55
2022/01/16 14:08:36;;;;;;;17.88;9.35;;;;;;;;;;5003977;28;20033;-55
2022/01/16 14:11:13;;;;;;;19.60;9.93;;;;;;;;;;5003516;28;20038;-56
2022/01/16 14:13:56;;;;;;;18.02;9.15;;;;;;;;;;5003692;28;20442;-54
2022/01/16 14:16:32;;;;;;;18.67;9.32;;;;;;;;;;5004038;28;20033;-54
2022/01/16 14:24:12;;;;;;;16.63;9.43;;;;;;;;;;5002882;28;20025;-52
2022/01/16 14:26:49;;;;;;;19.42;10.15;;;;;;;;;;5003104;28;20033;-55
2022/01/16 14:29:16;;;;;;;19.63;9.85;;;;;;;;;;5002543;28;20112;-54
2022/01/16 14:31:42;;;;;;;19.38;10.15;;;;;;;;;;5006312;28;20101;-59
2022/01/16 14:34:08;;;;;;;18.15;9.60;;;;;;;;;;5003442;28;20038;-56
2022/01/16 14:36:34;;;;;;;18.65;9.60;;;;;;;;;;5004161;28;20335;-53
2022/01/16 14:38:59;;;;;;;20.50;10.15;;;;;;;;;;5002720;28;20133;-56
2022/01/16 14:41:24;;;;;;;19.27;10.00;;;;;;;;;;4991273;28;20033;-56
2022/01/16 14:43:57;;;;;;;23.45;10.07;;;;;;;;;;5003181;28;20032;-54
2022/01/16 14:46:23;;;;;;;20.57;10.53;;;;;;;;;;5004459;28;20041;-51
2022/01/16 14:48:50;;;;;;;22.17;10.15;;;;;;;;;;5002979;28;20482;-52
2022/01/16 14:51:16;;;;;;;20.63;10.63;;;;;;;;;;5002857;28;20026;-57
2022/01/16 14:53:41;;;;;;;23.10;10.25;;;;;;;;;;4992800;28;20405;-57
2022/01/16 14:56:07;;;;;;;18.38;9.43;;;;;;;;;;5004747;28;20038;-53
2022/01/16 14:58:32;;;;;;;20.35;10.95;;;;;;;;;;5003421;28;20071;-55
2022/01/16 15:00:58;;;;;;;26.83;10.85;;;;;;;;;;5002503;28;20052;-56
2022/01/16 15:03:23;;;;;;;22.38;10.68;;;;;;;;;;5004643;28;20045;-52
2022/01/16 15:05:50;;;;;;;24.02;11.40;;;;;;;;;;5003756;28;20358;-53
2022/01/16 15:08:15;;;;;;;21.77;10.90;;;;;;;;;;5003777;28;20104;-56
2022/01/16 15:10:41;;;;;;;23.17;11.07;;;;;;;;;;5000750;28;20239;-53
2022/01/16 15:13:06;;;;;;;22.05;10.27;;;;;;;;;;5002995;28;20022;-57
2022/01/16 15:15:32;;;;;;;21.52;11.20;;;;;;;;;;5004088;28;20045;-55
2022/01/16 15:17:58;;;;;;;21.48;10.80;;;;;;;;;;5004051;28;20030;-55
2022/01/16 15:20:28;;;;;;;22.40;11.70;;;;;;;;;;5002731;28;20204;-58
2022/01/16 15:22:56;;;;;;;23.13;11.43;;;;;;;;;;5002248;28;20191;-51